Time;durP1;ratioP1;P1;durP2;ratioP2;P2;SDS_P1;SDS_P2;PMS_P1;PMS_P2;Temp;Humidity;BMP_temperature;BMP_pressure;BME280_temperature;BME280_humidity;BME280_pressure;Samples;Min_cycle;Max_cycle;Signal;HPM_P1;HPM_P2
2022/02/13 00:00:41;;;;;;;0.98;0.20;;;;;;;10.60;100.00;99000.91;5032333;28;20513;-78
2022/02/13 00:03:45;;;;;;;0.55;0.43;;;;;;;10.63;100.00;99001.94;5022917;28;20072;-78
2022/02/13 00:06:48;;;;;;;0.55;0.10;;;;;;;10.62;100.00;98992.81;5017932;28;20353;-78
2022/02/13 00:09:51;;;;;;;0.40;0.40;;;;;;;10.60;100.00;98995.34;5022511;28;20058;-78
2022/02/13 00:12:55;;;;;;;0.95;0.60;;;;;;;10.59;100.00;98979.88;5021427;28;20056;-78
2022/02/13 00:15:58;;;;;;;0.68;0.43;;;;;;;10.60;100.00;98987.00;5020971;28;20048;-78
2022/02/13 00:19:02;;;;;;;0.47;0.47;;;;;;;10.63;100.00;98988.03;5022695;28;20048;-78
2022/02/13 00:22:06;;;;;;;0.20;0.20;;;;;;;10.61;100.00;98980.16;5019810;28;20049;-78
2022/02/13 00:25:09;;;;;;;0.75;0.28;;;;;;;10.58;100.00;98981.16;5012214;28;20048;-77
2022/02/13 00:28:13;;;;;;;1.48;0.43;;;;;;;10.59;100.00;98977.09;5030072;28;20057;-78
2022/02/13 00:31:17;;;;;;;2.67;0.50;;;;;;;10.61;100.00;98973.84;5030821;28;20068;-78
2022/02/13 00:34:20;;;;;;;0.38;0.17;;;;;;;10.64;100.00;98968.03;5031889;28;20068;-78
2022/02/13 00:37:24;;;;;;;0.40;0.40;;;;;;;10.64;100.00;98967.25;5031488;28;20124;-78
2022/02/13 00:40:27;;;;;;;1.08;0.45;;;;;;;10.64;100.00;98965.25;5031428;28;20056;-78
2022/02/13 00:43:30;;;;;;;0.17;0.17;;;;;;;10.70;100.00;98947.81;5031096;28;20411;-78
2022/02/13 00:46:34;;;;;;;0.73;0.50;;;;;;;10.70;100.00;98956.16;5031154;28;20052;-78
2022/02/13 00:49:37;;;;;;;0.73;0.25;;;;;;;10.70;100.00;98936.69;5031304;28;20053;-78
2022/02/13 00:52:41;;;;;;;0.90;0.52;;;;;;;10.68;100.00;98940.72;5030917;28;20057;-78
2022/02/13 00:55:44;;;;;;;1.02;0.55;;;;;;;10.71;100.00;98932.63;5031141;28;20056;-78
2022/02/13 00:58:47;;;;;;;1.15;0.30;;;;;;;10.72;100.00;98923.03;5031300;28;20060;-78
2022/02/13 01:01:51;;;;;;;3.47;0.68;;;;;;;10.69;100.00;98930.34;5031095;28;20399;-78
2022/02/13 01:04:54;;;;;;;0.57;0.32;;;;;;;10.72;100.00;98928.59;5031343;28;20053;-78
2022/02/13 01:07:57;;;;;;;0.13;0.13;;;;;;;10.80;100.00;98916.47;5030992;28;20072;-78
2022/02/13 01:11:02;;;;;;;0.77;0.60;;;;;;;10.83;100.00;98914.72;5030866;28;20056;-78
2022/02/13 01:14:06;;;;;;;0.50;0.50;;;;;;;10.86;100.00;98922.81;5031703;28;20068;-78
2022/02/13 01:17:10;;;;;;;0.55;0.45;;;;;;;10.87;100.00;98909.66;5030228;28;20514;-78
2022/02/13 01:20:13;;;;;;;0.10;0.10;;;;;;;10.83;100.00;98914.72;5030888;28;20057;-78
2022/02/13 01:23:17;;;;;;;0.80;0.40;;;;;;;10.73;100.00;98902.25;5030875;28;20052;-77
2022/02/13 01:26:23;;;;;;;0.20;0.20;;;;;;;10.77;100.00;98888.84;5030696;28;20052;-78
2022/02/13 01:29:27;;;;;;;0.60;0.10;;;;;;;10.68;100.00;98897.44;5030746;28;20060;-78
2022/02/13 01:32:31;;;;;;;0.47;0.15;;;;;;;10.77;100.00;98903.53;5029751;28;20076;-84
2022/02/13 01:35:34;;;;;;;0.73;0.20;;;;;;;10.80;100.00;98902.56;5053037;28;20419;-78
2022/02/13 01:38:38;;;;;;;0.38;0.38;;;;;;;10.81;100.00;98883.78;5030595;28;20049;-78
2022/02/13 01:41:41;;;;;;;0.22;0.10;;;;;;;10.81;100.00;98881.00;5030576;28;20048;-77
2022/02/13 01:44:45;;;;;;;0.20;0.20;;;;;;;10.83;100.00;98875.72;5027354;28;20048;-78
2022/02/13 01:47:48;;;;;;;0.10;0.10;;;;;;;10.81;100.00;98869.88;5025397;28;20072;-78
2022/02/13 01:50:53;;;;;;;0.88;0.52;;;;;;;10.79;100.00;98866.81;5021217;28;20125;-78
2022/02/13 01:53:56;;;;;;;0.85;0.40;;;;;;;10.76;100.00;98863.03;5013421;28;20061;-78
2022/02/13 01:56:59;;;;;;;0.77;0.60;;;;;;;10.80;100.00;98862.78;5045000;28;20533;-78
2022/02/13 02:00:05;;;;;;;0.10;0.10;;;;;;;10.86;100.00;98855.97;5034780;28;20407;-78
2022/02/13 02:03:09;;;;;;;0.30;0.10;;;;;;;10.86;100.00;98846.84;5034930;28;20080;-78
2022/02/13 02:06:12;;;;;;;0.30;0.22;;;;;;;10.90;100.00;98850.16;5033685;28;20052;-76
2022/02/13 02:09:15;;;;;;;0.85;0.38;;;;;;;10.89;100.00;98837.50;5032970;28;20060;-78
2022/02/13 02:12:19;;;;;;;0.10;0.10;;;;;;;10.90;100.00;98833.44;5033355;28;20048;-79
2022/02/13 02:15:23;;;;;;;0.17;0.10;;;;;;;10.88;100.00;98835.97;5034022;28;20061;-78
2022/02/13 02:18:26;;;;;;;1.48;0.20;;;;;;;10.91;100.00;98835.75;5034602;28;20411;-79
2022/02/13 02:21:30;;;;;;;0.90;0.10;;;;;;;10.92;100.00;98836.47;5033544;28;20502;-76
2022/02/13 02:24:34;;;;;;;0.28;0.20;;;;;;;10.99;100.00;98830.44;5034170;28;20102;-76
2022/02/13 02:27:37;;;;;;;1.38;0.30;;;;;;;10.99;100.00;98822.06;5033712;28;20064;-76
2022/02/13 02:30:41;;;;;;;0.75;0.45;;;;;;;11.04;100.00;98815.75;5031758;28;20547;-78
2022/02/13 02:33:44;;;;;;;0.20;0.20;;;;;;;11.04;100.00;98801.84;5033258;28;20053;-76
2022/02/13 02:36:47;;;;;;;1.33;0.20;;;;;;;11.03;100.00;98792.69;5033715;28;20060;-78
2022/02/13 02:39:51;;;;;;;1.17;0.20;;;;;;;11.01;100.00;98783.31;5034358;28;20049;-77
2022/02/13 02:42:54;;;;;;;1.23;0.30;;;;;;;11.02;100.00;98784.84;5033791;28;20056;-77
2022/02/13 02:45:59;;;;;;;0.52;0.22;;;;;;;11.02;100.00;98762.56;5034647;28;20502;-76
2022/02/13 02:49:02;;;;;;;2.95;0.32;;;;;;;11.02;100.00;98759.78;5033880;28;20056;-76
2022/02/13 02:52:06;;;;;;;0.15;0.10;;;;;;;11.05;100.00;98748.38;5033724;28;20048;-75
2022/02/13 02:55:10;;;;;;;0.30;0.20;;;;;;;11.09;100.00;98746.09;5033848;28;20053;-76
2022/02/13 02:58:14;;;;;;;0.63;0.22;;;;;;;11.15;100.00;98734.97;5032948;28;20399;-75
2022/02/13 03:01:17;;;;;;;0.10;0.10;;;;;;;11.14;100.00;98731.41;5033577;28;20048;-76
2022/02/13 03:04:21;;;;;;;0.38;0.10;;;;;;;11.18;100.00;98726.34;5032880;28;20541;-76
2022/02/13 03:07:24;;;;;;;3.40;0.20;;;;;;;11.21;100.00;98719.00;5033012;28;20424;-76
2022/02/13 03:10:28;;;;;;;0.82;0.30;;;;;;;11.29;100.00;98712.41;5033392;28;20052;-76
2022/02/13 03:13:31;;;;;;;0.25;0.22;;;;;;;11.26;100.00;98709.91;5032317;28;20072;-76
2022/02/13 03:16:35;;;;;;;0.10;0.10;;;;;;;11.29;100.00;98708.84;5032834;28;20044;-76
2022/02/13 03:19:38;;;;;;;0.15;0.10;;;;;;;11.34;100.00;98688.59;5032963;28;20049;-76
2022/02/13 03:22:42;;;;;;;0.17;0.10;;;;;;;11.34;100.00;98694.16;5032799;28;20056;-76
2022/02/13 03:25:46;;;;;;;0.20;0.20;;;;;;;11.32;100.00;98679.97;5033428;28;20415;-78
2022/02/13 03:28:51;;;;;;;0.30;0.30;;;;;;;11.33;100.00;98684.28;5032044;28;20072;-78
2022/02/13 03:31:55;;;;;;;0.45;0.00;;;;;;;11.36;100.00;98677.69;5033008;28;20492;-78
2022/02/13 03:34:58;;;;;;;0.25;0.25;;;;;;;11.41;100.00;98676.94;5033016;28;20052;-78
2022/02/13 03:38:03;;;;;;;0.20;0.10;;;;;;;11.39;100.00;98679.47;5032756;28;20065;-78
2022/02/13 03:41:06;;;;;;;0.10;0.00;;;;;;;11.37;100.00;98676.41;5032894;28;20506;-78
2022/02/13 03:44:10;;;;;;;0.20;0.10;;;;;;;11.38;100.00;98667.56;5026734;28;20053;-78
2022/02/13 03:47:14;;;;;;;0.10;0.10;;;;;;;11.42;100.00;98656.13;5022844;28;20053;-78
2022/02/13 03:50:18;;;;;;;0.10;0.00;;;;;;;11.43;100.00;98646.50;5032676;28;20064;-78
2022/02/13 03:53:21;;;;;;;0.10;0.08;;;;;;;11.41;100.00;98643.47;5032682;28;20490;-78
2022/02/13 03:56:25;;;;;;;0.57;0.43;;;;;;;11.40;100.00;98637.13;5032577;28;20058;-78
2022/02/13 03:59:28;;;;;;;0.10;0.10;;;;;;;11.39;100.00;98629.31;5031791;28;20226;-78
2022/02/13 04:02:31;;;;;;;0.10;0.10;;;;;;;11.36;100.00;98622.72;5031914;28;20068;-78
2022/02/13 04:05:35;;;;;;;0.10;0.10;;;;;;;11.38;100.00;98620.16;5032365;28;20052;-78
2022/02/13 04:08:39;;;;;;;0.10;0.10;;;;;;;11.41;100.00;98605.19;5032215;28;20056;-78
2022/02/13 04:11:42;;;;;;;0.10;0.00;;;;;;;11.45;100.00;98610.53;5031871;28;20491;-78
2022/02/13 04:14:46;;;;;;;0.45;0.30;;;;;;;11.48;100.00;98592.75;5013251;28;20061;-78
2022/02/13 04:17:49;;;;;;;0.52;0.20;;;;;;;11.55;100.00;98589.44;5012186;28;20137;-78
2022/02/13 04:20:53;;;;;;;2.83;0.30;;;;;;;11.59;100.00;98587.13;5034048;28;20048;-78
2022/02/13 04:23:56;;;;;;;0.10;0.10;;;;;;;11.59;100.00;98575.22;5012314;28;20053;-77
2022/02/13 04:26:59;;;;;;;0.10;0.10;;;;;;;11.62;100.00;98572.19;5019897;28;20052;-78
2022/02/13 04:30:05;;;;;;;0.17;0.17;;;;;;;11.63;100.00;98565.31;5031920;28;20057;-78
2022/02/13 04:33:08;;;;;;;0.40;0.32;;;;;;;11.63;100.00;98559.75;5031878;28;20541;-78
2022/02/13 04:36:11;;;;;;;6.65;0.80;;;;;;;11.67;100.00;98554.72;5030743;28;20068;-79
2022/02/13 04:39:15;;;;;;;0.90;0.20;;;;;;;11.67;100.00;98553.94;5031197;28;20048;-79
2022/02/13 04:42:18;;;;;;;0.20;0.10;;;;;;;11.62;100.00;98552.66;5031545;28;20060;-79
2022/02/13 04:45:21;;;;;;;0.10;0.00;;;;;;;11.63;100.00;98545.78;5031558;28;20518;-79
2022/02/13 04:48:25;;;;;;;0.30;0.28;;;;;;;11.64;100.00;98544.53;5031976;28;20070;-79
2022/02/13 04:51:29;;;;;;;0.65;0.25;;;;;;;11.66;100.00;98533.63;5030510;28;20048;-79
2022/02/13 04:54:32;;;;;;;0.90;0.47;;;;;;;11.67;100.00;98515.66;5030413;28;20053;-80
2022/02/13 04:57:35;;;;;;;0.22;0.20;;;;;;;11.72;100.00;98519.66;5030619;28;21378;-79
2022/02/13 05:00:40;;;;;;;0.10;0.10;;;;;;;11.76;100.00;98512.53;5030467;28;20056;-79
2022/02/13 05:03:43;;;;;;;0.20;0.20;;;;;;;11.76;100.00;98501.38;5031311;28;20072;-79
2022/02/13 05:06:46;;;;;;;0.20;0.10;;;;;;;11.72;100.00;98500.91;5029491;28;20155;-80
2022/02/13 05:09:49;;;;;;;0.10;0.10;;;;;;;11.73;100.00;98496.09;5030522;28;20060;-79
2022/02/13 05:12:53;;;;;;;0.25;0.10;;;;;;;11.78;100.00;98476.53;5030252;28;20052;-80
2022/02/13 05:15:56;;;;;;;0.80;0.10;;;;;;;11.75;100.00;98460.84;5031947;28;20194;-79
2022/02/13 05:18:59;;;;;;;0.10;0.10;;;;;;;11.74;100.00;98459.31;5031063;28;20060;-79
2022/02/13 05:22:03;;;;;;;0.32;0.20;;;;;;;11.81;100.00;98461.56;5030351;28;20501;-80
2022/02/13 05:25:07;;;;;;;0.45;0.20;;;;;;;11.77;100.00;98447.13;5031252;28;20057;-79
2022/02/13 05:28:10;;;;;;;0.10;0.00;;;;;;;11.68;100.00;98447.44;5030304;28;20056;-80
2022/02/13 05:31:14;;;;;;;0.17;0.08;;;;;;;11.68;100.00;98441.88;5030762;28;20049;-79
2022/02/13 05:34:17;;;;;;;0.20;0.20;;;;;;;11.66;100.00;98429.69;5030594;28;20060;-79
2022/02/13 05:37:21;;;;;;;0.10;0.10;;;;;;;11.67;100.00;98425.66;5029693;28;20063;-79
2022/02/13 05:40:24;;;;;;;0.10;0.00;;;;;;;11.67;100.00;98412.47;5030889;28;20053;-80
2022/02/13 05:43:28;;;;;;;0.10;0.10;;;;;;;11.69;100.00;98409.94;5031046;28;20068;-80
2022/02/13 05:46:32;;;;;;;0.10;0.10;;;;;;;11.74;100.00;98409.13;5030106;28;20060;-79
2022/02/13 05:49:35;;;;;;;0.40;0.30;;;;;;;11.77;100.00;98408.09;5029832;28;20119;-79
2022/02/13 05:52:38;;;;;;;0.28;0.28;;;;;;;11.72;100.00;98406.09;5029761;28;20048;-79
2022/02/13 05:55:42;;;;;;;0.30;0.30;;;;;;;11.75;100.00;98396.69;5030656;28;20506;-80
2022/02/13 05:58:46;;;;;;;0.10;0.10;;;;;;;11.71;100.00;98393.44;5030195;28;20391;-80
2022/02/13 06:01:53;;;;;;;0.85;0.22;;;;;;;11.68;100.00;98383.31;5030810;28;20057;-79
2022/02/13 06:04:57;;;;;;;0.20;0.20;;;;;;;11.71;100.00;98376.69;5030055;28;20052;-80
2022/02/13 06:08:01;;;;;;;1.23;0.30;;;;;;;11.69;100.00;98368.09;5029746;28;20057;-80
2022/02/13 06:11:05;;;;;;;0.25;0.22;;;;;;;11.71;100.00;98359.97;5029518;28;20048;-79
2022/02/13 06:14:09;;;;;;;0.10;0.10;;;;;;;11.71;100.00;98356.41;5030261;28;20497;-79
2022/02/13 06:17:12;;;;;;;0.25;0.25;;;;;;;11.67;100.00;98359.50;5030321;28;20505;-79
2022/02/13 06:20:16;;;;;;;0.43;0.38;;;;;;;11.65;100.00;98344.53;5029579;28;20056;-80
2022/02/13 06:23:19;;;;;;;0.35;0.10;;;;;;;11.64;100.00;98360.50;5029601;28;20048;-80
2022/02/13 06:26:23;;;;;;;0.10;0.10;;;;;;;11.63;100.00;98352.66;5030044;28;20049;-79
2022/02/13 06:29:27;;;;;;;1.20;0.43;;;;;;;11.56;100.00;98330.91;5029697;28;20061;-80
2022/02/13 06:32:30;;;;;;;2.63;0.45;;;;;;;11.50;100.00;98336.50;5029672;28;20076;-79
2022/02/13 06:35:35;;;;;;;0.38;0.38;;;;;;;11.58;100.00;98323.53;5030466;28;20048;-79
2022/02/13 06:38:38;;;;;;;2.05;1.08;;;;;;;11.56;100.00;98314.19;5029638;28;20502;-79
2022/02/13 06:41:42;;;;;;;3.80;0.45;;;;;;;11.51;100.00;98296.22;5033651;28;20518;-79
2022/02/13 06:44:46;;;;;;;2.05;0.55;;;;;;;11.54;100.00;98294.44;5034130;28;20092;-79
2022/02/13 06:47:49;;;;;;;3.10;0.68;;;;;;;11.52;100.00;98289.34;5033478;28;20048;-79
2022/02/13 06:50:52;;;;;;;10.68;1.35;;;;;;;11.51;100.00;98273.94;5034036;28;20056;-80
2022/02/13 06:53:56;;;;;;;0.70;0.30;;;;;;;11.48;100.00;98283.31;5033969;28;20057;-79
2022/02/13 06:56:59;;;;;;;0.43;0.20;;;;;;;11.42;100.00;98282.63;5033418;28;20537;-80
2022/02/13 07:00:03;;;;;;;0.50;0.43;;;;;;;11.43;100.00;98273.00;5033655;28;20048;-79
2022/02/13 07:03:07;;;;;;;1.30;0.30;;;;;;;11.38;100.00;98259.84;5033451;28;20412;-80
2022/02/13 07:06:12;;;;;;;6.78;0.47;;;;;;;11.25;100.00;98240.97;5033357;28;20467;-79
2022/02/13 07:09:15;;;;;;;0.82;0.38;;;;;;;11.27;100.00;98254.34;5032588;28;20060;-79
2022/02/13 07:12:19;;;;;;;0.10;0.10;;;;;;;11.27;100.00;98248.78;5032470;28;20065;-79
2022/02/13 07:15:22;;;;;;;0.47;0.47;;;;;;;11.27;100.00;98243.97;5033206;28;20403;-79
2022/02/13 07:18:26;;;;;;;0.10;0.10;;;;;;;11.27;100.00;98237.63;5033395;28;20068;-79
2022/02/13 07:21:30;;;;;;;3.35;0.40;;;;;;;11.32;100.00;98228.50;5032963;28;20057;-79
2022/02/13 07:24:37;;;;;;;1.23;0.32;;;;;;;11.29;100.00;98230.28;5032117;28;20418;-79
2022/02/13 07:27:41;;;;;;;0.30;0.20;;;;;;;11.31;100.00;98216.56;5031737;28;20060;-79
2022/02/13 07:30:44;;;;;;;2.75;0.85;;;;;;;11.31;100.00;98218.59;5033251;28;20068;-79
2022/02/13 07:33:48;;;;;;;5.97;1.10;;;;;;;11.31;100.00;98216.56;5033103;28;20056;-79
2022/02/13 07:37:01;;;;;;;1.45;0.65;;;;;;;11.31;100.00;98218.59;5032079;28;20121;-79
2022/02/13 07:40:06;;;;;;;0.32;0.32;;;;;;;11.25;100.00;98220.69;5033153;28;20056;-79
2022/02/13 07:43:11;;;;;;;1.38;1.10;;;;;;;11.23;100.00;98214.88;5033039;28;20057;-79
2022/02/13 07:46:16;;;;;;;1.00;0.68;;;;;;;11.23;100.00;98209.31;5032823;28;20051;-79
2022/02/13 07:49:20;;;;;;;0.32;0.15;;;;;;;11.22;100.00;98202.22;5032735;28;20060;-79
2022/02/13 07:52:23;;;;;;;1.48;0.43;;;;;;;11.18;100.00;98202.50;5032538;28;20498;-79
2022/02/13 07:55:27;;;;;;;0.98;0.17;;;;;;;11.07;100.00;98191.44;5032685;28;20068;-79
2022/02/13 07:58:32;;;;;;;8.25;1.05;;;;;;;11.05;100.00;98194.00;5031567;28;20507;-80
2022/02/13 08:01:36;;;;;;;1.42;1.33;;;;;;;11.01;100.00;98198.34;5032512;28;20061;-79
2022/02/13 08:04:42;;;;;;;0.98;0.28;;;;;;;10.97;100.00;98193.06;5031466;28;20048;-79
2022/02/13 08:07:49;;;;;;;0.55;0.55;;;;;;;10.91;100.00;98186.78;5032107;28;20499;-79
2022/02/13 08:10:52;;;;;;;0.25;0.25;;;;;;;10.93;100.00;98177.91;5032355;28;20056;-79
2022/02/13 08:13:57;;;;;;;0.20;0.20;;;;;;;10.80;100.00;98183.31;5031599;28;20056;-79
2022/02/13 08:17:00;;;;;;;0.30;0.30;;;;;;;10.81;100.00;98179.25;5031829;28;20060;-79
2022/02/13 08:20:07;;;;;;;0.50;0.38;;;;;;;10.82;100.00;98181.53;5032413;28;20060;-79
2022/02/13 08:23:11;;;;;;;0.28;0.28;;;;;;;10.81;100.00;98182.03;5032234;28;20057;-79
2022/02/13 08:26:17;;;;;;;0.20;0.20;;;;;;;10.77;100.00;98173.19;5030707;28;20494;-80
2022/02/13 08:29:21;;;;;;;0.28;0.28;;;;;;;10.72;100.00;98166.41;5031719;28;20475;-79
2022/02/13 08:32:24;;;;;;;2.13;0.95;;;;;;;10.68;100.00;98146.44;5031646;28;20064;-78
2022/02/13 08:35:28;;;;;;;0.20;0.00;;;;;;;10.64;100.00;98149.50;5031771;28;20151;-78
2022/02/13 08:38:32;;;;;;;1.65;0.80;;;;;;;10.59;100.00;98144.75;5031906;28;20060;-79
2022/02/13 08:41:36;;;;;;;0.20;0.20;;;;;;;10.58;100.00;98132.09;5031575;28;20053;-79
2022/02/13 08:44:40;;;;;;;0.40;0.40;;;;;;;10.53;100.00;98132.13;5032359;28;20052;-79
2022/02/13 08:47:44;;;;;;;4.03;0.47;;;;;;;10.53;100.00;98132.91;5031717;28;20052;-79
2022/02/13 08:50:49;;;;;;;0.68;0.43;;;;;;;10.52;100.00;98125.06;5031016;28;20060;-79
2022/02/13 08:53:52;;;;;;;0.95;0.90;;;;;;;10.47;100.00;98121.06;5030917;28;20064;-79
2022/02/13 08:56:56;;;;;;;5.47;0.60;;;;;;;10.53;100.00;98110.63;5029966;28;20410;-78
2022/02/13 08:59:59;;;;;;;0.22;0.17;;;;;;;10.52;100.00;98109.13;5031099;28;20072;-79
2022/02/13 09:03:03;;;;;;;0.30;0.10;;;;;;;10.50;100.00;98114.44;5030328;28;20052;-78
2022/02/13 09:06:06;;;;;;;2.83;0.77;;;;;;;10.50;100.00;98099.78;5031247;28;20454;-79
2022/02/13 09:09:10;;;;;;;0.20;0.20;;;;;;;10.50;100.00;98083.09;5031188;28;20048;-79
2022/02/13 09:12:15;;;;;;;0.20;0.20;;;;;;;10.53;100.00;98074.44;5030477;28;20498;-79
2022/02/13 09:15:18;;;;;;;0.40;0.30;;;;;;;10.53;100.00;98071.66;5030262;28;20048;-79
2022/02/13 09:18:21;;;;;;;3.72;0.35;;;;;;;10.51;100.00;98079.78;5030757;28;20072;-79
2022/02/13 09:21:25;;;;;;;1.23;0.32;;;;;;;10.48;100.00;98066.16;5030785;28;20060;-79
2022/02/13 09:24:29;;;;;;;2.90;0.90;;;;;;;10.48;100.00;98068.94;5031054;28;20037;-79
2022/02/13 09:27:33;;;;;;;0.57;0.30;;;;;;;10.49;100.00;98051.72;5030108;28;20606;-79
2022/02/13 09:30:37;;;;;;;7.88;1.10;;;;;;;10.53;100.00;98048.63;5030934;28;20068;-78
2022/02/13 09:33:40;;;;;;;14.48;3.85;;;;;;;10.56;100.00;98042.03;5030644;28;20056;-80
2022/02/13 09:36:45;;;;;;;16.98;2.60;;;;;;;10.54;100.00;98034.22;5030996;28;20057;-79
2022/02/13 09:39:48;;;;;;;4.80;0.90;;;;;;;10.51;100.00;98029.69;5030913;28;20064;-79
2022/02/13 09:42:52;;;;;;;17.92;4.00;;;;;;;10.50;100.00;98013.50;5029774;28;20049;-79
2022/02/13 09:45:57;;;;;;;4.18;1.23;;;;;;;10.49;100.00;98009.97;5031454;28;20052;-79
2022/02/13 09:49:01;;;;;;;2.13;0.63;;;;;;;10.49;100.00;98009.97;5030720;28;20060;-79
2022/02/13 09:52:07;;;;;;;2.55;0.90;;;;;;;10.50;100.00;97999.59;5030848;28;20053;-79
2022/02/13 09:55:11;;;;;;;18.75;1.27;;;;;;;10.49;100.00;97987.69;5031064;28;20064;-79
2022/02/13 09:58:14;;;;;;;0.98;0.93;;;;;;;10.51;100.00;97990.72;5029952;28;20053;-79
2022/02/13 10:01:17;;;;;;;4.50;0.65;;;;;;;10.50;100.00;97980.84;5030881;28;20056;-80
2022/02/13 10:04:41;;;;;;;6.28;0.95;;;;;;;10.50;100.00;97974.53;5030837;28;20121;-79
2022/02/13 10:07:44;;;;;;;0.75;0.65;;;;;;;10.54;100.00;97967.41;5030731;28;20306;-79
2022/02/13 10:10:48;;;;;;;3.33;0.47;;;;;;;10.56;100.00;97962.09;5030638;28;20065;-79
2022/02/13 10:14:22;;;;;;;0.20;0.20;;;;;;;10.57;100.00;97940.56;5031431;28;20048;-78
2022/02/13 10:17:25;;;;;;;0.20;0.20;;;;;;;10.55;100.00;97935.50;5034253;28;20052;-78
2022/02/13 10:20:33;;;;;;;1.30;1.20;;;;;;;10.55;100.00;97938.31;5033342;28;20052;-79
2022/02/13 10:23:37;;;;;;;0.80;0.40;;;;;;;10.53;100.00;97923.41;5034426;28;20076;-79
2022/02/13 10:26:42;;;;;;;1.02;0.73;;;;;;;10.55;100.00;97918.81;5033000;28;20041;-79
2022/02/13 10:29:55;;;;;;;1.08;0.47;;;;;;;10.57;100.00;97905.13;5033937;28;20052;-78
2022/02/13 10:33:13;;;;;;;0.10;0.00;;;;;;;10.54;100.00;97889.50;5033272;28;20056;-79
2022/02/13 10:36:17;;;;;;;1.20;0.70;;;;;;;10.53;100.00;97882.41;5033831;28;20053;-79
2022/02/13 10:39:24;;;;;;;0.40;0.40;;;;;;;10.57;100.00;97877.28;5034080;28;20048;-78
2022/02/13 10:42:28;;;;;;;1.85;0.30;;;;;;;10.59;100.00;97869.16;5032678;28;20056;-79
2022/02/13 10:45:34;;;;;;;0.85;0.47;;;;;;;10.58;100.00;97861.34;5033694;28;20048;-78
2022/02/13 10:48:37;;;;;;;0.22;0.22;;;;;;;10.59;100.00;97851.72;5032485;28;20073;-79
2022/02/13 10:51:42;;;;;;;0.20;0.13;;;;;;;10.61;100.00;97846.41;5032860;28;20072;-79
2022/02/13 10:54:47;;;;;;;0.10;0.10;;;;;;;10.60;100.00;97837.28;5013768;28;20399;-80
2022/02/13 10:57:51;;;;;;;0.25;0.25;;;;;;;10.56;100.00;97831.28;5039349;28;20150;-78
2022/02/13 11:00:58;;;;;;;0.15;0.15;;;;;;;10.55;100.00;97821.41;5033296;28;20510;-79
2022/02/13 11:04:04;;;;;;;1.10;0.50;;;;;;;10.55;100.00;97809.50;5032569;28;20057;-80
2022/02/13 11:07:09;;;;;;;2.80;0.22;;;;;;;10.55;100.00;97812.28;5033454;28;20406;-78
2022/02/13 11:10:17;;;;;;;0.10;0.10;;;;;;;10.54;100.00;97796.88;5033538;28;20068;-78
2022/02/13 11:13:30;;;;;;;0.50;0.45;;;;;;;10.53;100.00;97798.16;5033386;28;20510;-77
2022/02/13 11:16:38;;;;;;;0.43;0.20;;;;;;;10.56;100.00;97786.75;5033026;28;20053;-82
2022/02/13 11:19:42;;;;;;;0.10;0.10;;;;;;;10.54;100.00;97775.38;5032376;28;20068;-78
2022/02/13 11:22:52;;;;;;;0.57;0.25;;;;;;;10.58;100.00;97778.63;5032958;28;20502;-78
2022/02/13 11:25:58;;;;;;;1.50;0.10;;;;;;;10.56;100.00;97764.47;5031003;28;20053;-78
2022/02/13 11:29:01;;;;;;;0.25;0.25;;;;;;;10.58;100.00;97747.25;5012452;28;20057;-80
2022/02/13 11:32:35;;;;;;;0.22;0.17;;;;;;;10.52;100.00;97730.63;5013246;28;20404;-79
2022/02/13 11:35:57;;;;;;;0.35;0.20;;;;;;;10.53;100.00;97726.56;5012397;28;20065;-79
2022/02/13 11:39:00;;;;;;;0.57;0.35;;;;;;;10.55;100.00;97717.66;5012054;28;20049;-79
2022/02/13 11:42:15;;;;;;;0.15;0.10;;;;;;;10.53;100.00;97723.78;5013207;28;20057;-79
2022/02/13 11:45:20;;;;;;;0.20;0.20;;;;;;;10.53;100.00;97718.22;5035742;28;20399;-80
2022/02/13 11:48:32;;;;;;;1.10;0.43;;;;;;;10.54;100.00;97700.25;5032195;28;20052;-80
2022/02/13 11:51:45;;;;;;;0.30;0.30;;;;;;;10.50;100.00;97694.19;5031644;28;20057;-79
2022/02/13 11:54:48;;;;;;;0.82;0.28;;;;;;;10.48;100.00;97674.50;5011695;28;20057;-79
2022/02/13 11:58:12;;;;;;;0.30;0.22;;;;;;;10.52;100.00;97674.22;5027883;28;20060;-78
2022/02/13 12:01:35;;;;;;;5.47;0.52;;;;;;;10.52;100.00;97668.66;5031962;28;20518;-78
2022/02/13 12:05:07;;;;;;;0.73;0.30;;;;;;;10.54;100.00;97644.59;5031706;28;20650;-78
2022/02/13 12:08:21;;;;;;;0.20;0.10;;;;;;;10.54;100.00;97639.03;5031314;28;20411;-79
2022/02/13 12:11:36;;;;;;;0.10;0.10;;;;;;;10.56;100.00;97624.56;5032308;28;20064;-79
2022/02/13 12:14:41;;;;;;;0.22;0.20;;;;;;;10.58;100.00;97628.31;5032420;28;20076;-79
2022/02/13 12:17:44;;;;;;;0.30;0.30;;;;;;;10.65;100.00;97622.13;5020379;28;20056;-79
2022/02/13 12:20:49;;;;;;;1.17;0.30;;;;;;;10.68;100.00;97614.03;5012205;28;20064;-78
2022/02/13 12:24:07;;;;;;;0.57;0.30;;;;;;;10.68;100.00;97598.03;5011396;28;20053;-78
2022/02/13 12:27:11;;;;;;;2.17;0.65;;;;;;;10.69;100.00;97599.56;5021315;28;20068;-77
2022/02/13 12:30:14;;;;;;;0.20;0.20;;;;;;;10.73;100.00;97582.53;5031918;28;20060;-77
2022/02/13 12:33:22;;;;;;;0.20;0.20;;;;;;;10.70;100.00;97567.66;5031761;28;20064;-80
2022/02/13 12:36:26;;;;;;;5.38;0.73;;;;;;;10.74;100.00;97573.69;5032079;28;20053;-80
2022/02/13 12:39:30;;;;;;;0.75;0.47;;;;;;;10.76;100.00;97554.41;5029825;28;20048;-81
2022/02/13 12:42:35;;;;;;;0.75;0.25;;;;;;;10.73;100.00;97543.56;5031785;28;20049;-80
2022/02/13 12:45:39;;;;;;;0.35;0.35;;;;;;;10.77;100.00;97532.84;5031823;28;20073;-80
2022/02/13 12:48:43;;;;;;;0.68;0.55;;;;;;;10.77;100.00;97521.72;5026811;28;20439;-79
2022/02/13 12:51:49;;;;;;;0.63;0.40;;;;;;;10.77;100.00;97516.91;5031577;28;20044;-80
2022/02/13 12:54:53;;;;;;;0.22;0.20;;;;;;;10.79;100.00;97508.03;5030571;28;20052;-79
2022/02/13 12:57:58;;;;;;;0.20;0.20;;;;;;;10.80;100.00;97496.38;5027227;28;20068;-80
2022/02/13 13:01:02;;;;;;;1.55;0.30;;;;;;;10.81;100.00;97497.09;5030004;28;20613;-79
2022/02/13 13:04:05;;;;;;;0.25;0.10;;;;;;;10.88;100.00;97465.84;5030764;28;20056;-79
2022/02/13 13:07:19;;;;;;;1.65;0.75;;;;;;;10.93;100.00;97462.97;5030793;28;20048;-79
2022/02/13 13:10:27;;;;;;;0.47;0.20;;;;;;;10.95;100.00;97452.03;5030912;28;20506;-79
2022/02/13 13:13:38;;;;;;;0.40;0.10;;;;;;;10.97;100.00;97448.72;5030841;28;20056;-79
2022/02/13 13:16:42;;;;;;;0.28;0.28;;;;;;;11.00;100.00;97433.72;5025389;28;20049;-78
2022/02/13 13:19:45;;;;;;;1.00;0.20;;;;;;;11.02;100.00;97426.31;5030472;28;20052;-79
2022/02/13 13:23:08;;;;;;;0.35;0.15;;;;;;;11.05;100.00;97418.91;5052384;28;20072;-79
2022/02/13 13:26:13;;;;;;;1.10;0.20;;;;;;;11.06;100.00;97412.06;5030176;28;20057;-79
2022/02/13 13:29:21;;;;;;;0.10;0.10;;;;;;;11.12;100.00;97401.56;5030531;28;20060;-79
2022/02/13 13:32:25;;;;;;;0.28;0.10;;;;;;;11.08;100.00;97384.44;5029797;28;20052;-80
2022/02/13 13:35:30;;;;;;;1.33;0.25;;;;;;;11.11;100.00;97388.94;5025870;28;20049;-77
2022/02/13 13:38:34;;;;;;;0.17;0.17;;;;;;;11.15;100.00;97378.19;5009839;28;20049;-79
2022/02/13 13:41:37;;;;;;;1.63;0.30;;;;;;;11.16;100.00;97365.75;5023675;28;20053;-81
2022/02/13 13:44:41;;;;;;;0.10;0.00;;;;;;;11.21;100.00;97360.06;5029519;28;20049;-78
2022/02/13 13:47:49;;;;;;;3.15;0.90;;;;;;;11.27;100.00;97343.97;5024206;28;20053;-78
2022/02/13 13:50:53;;;;;;;7.32;1.33;;;;;;;11.30;100.00;97344.94;5034339;28;20056;-79
2022/02/13 13:53:57;;;;;;;0.65;0.25;;;;;;;11.23;100.00;97332.44;5032968;28;20056;-78
2022/02/13 13:57:00;;;;;;;0.77;0.25;;;;;;;11.31;100.00;97318.56;5033180;28;20426;-77
2022/02/13 14:00:07;;;;;;;0.35;0.35;;;;;;;11.30;100.00;97317.09;5033354;28;20490;-79
2022/02/13 14:03:11;;;;;;;0.57;0.30;;;;;;;11.34;100.00;97311.91;5033122;28;20057;-78
2022/02/13 14:06:15;;;;;;;3.80;0.55;;;;;;;11.37;100.00;97299.66;5025454;28;20057;-79
2022/02/13 14:09:18;;;;;;;1.77;0.57;;;;;;;11.38;100.00;97285.22;5033412;28;20056;-79
2022/02/13 14:12:21;;;;;;;0.65;0.10;;;;;;;11.42;100.00;97279.28;5034045;28;20056;-78
2022/02/13 14:15:26;;;;;;;0.10;0.10;;;;;;;11.43;100.00;97275.22;5030562;28;20502;-80
2022/02/13 14:18:30;;;;;;;0.20;0.20;;;;;;;11.45;100.00;97258.72;5013883;28;20052;-80